createdAt,value
2022-12-14T00:01:18.875Z,44.20
2022-12-14T00:03:48.964Z,42.93
2022-12-14T00:06:20.138Z,42.20
2022-12-14T00:08:52.779Z,43.15
2022-12-14T00:11:22.663Z,45.65
2022-12-14T00:13:54.468Z,45.87
2022-12-14T00:18:55.491Z,41.27
2022-12-14T00:21:26.131Z,42.53
2022-12-14T00:23:57.813Z,41.00
2022-12-14T00:26:29.262Z,39.20
2022-12-14T00:29:00.209Z,38.80
2022-12-14T00:31:32.323Z,38.17
2022-12-14T00:34:01.879Z,37.33
2022-12-14T00:36:32.135Z,36.03
2022-12-14T00:39:01.753Z,36.63
2022-12-14T00:41:34.160Z,35.73
2022-12-14T00:44:10.824Z,37.20
2022-12-14T00:46:40.186Z,35.40
2022-12-14T00:49:10.142Z,33.60
2022-12-14T00:51:39.563Z,34.80
2022-12-14T00:54:08.903Z,34.10
2022-12-14T00:56:38.322Z,34.77
2022-12-14T00:59:07.651Z,36.17
2022-12-14T01:01:37.370Z,34.20
2022-12-14T01:04:21.200Z,36.33
2022-12-14T01:06:51.918Z,34.17
2022-12-14T01:09:23.917Z,35.23
2022-12-14T01:11:53.497Z,35.30
2022-12-14T01:14:23.435Z,34.33
2022-12-14T01:16:52.841Z,34.73
2022-12-14T01:19:22.182Z,33.93
2022-12-14T01:21:52.983Z,33.80
2022-12-14T01:24:22.288Z,34.40
2022-12-14T01:26:51.776Z,34.80
2022-12-14T01:29:21.107Z,34.60
2022-12-14T01:31:50.640Z,34.53
2022-12-14T01:34:20.153Z,37.80
2022-12-14T01:36:49.574Z,36.00
2022-12-14T01:39:19.123Z,36.17
2022-12-14T01:41:52.412Z,34.93
2022-12-14T01:44:54.617Z,36.17
2022-12-14T01:47:33.771Z,33.83
2022-12-14T01:50:09.658Z,34.60
2022-12-14T01:52:43.433Z,33.87
2022-12-14T01:55:21.094Z,33.20
2022-12-14T01:57:58.775Z,34.83
2022-12-14T02:00:28.104Z,34.30
2022-12-14T02:03:03.406Z,33.37
2022-12-14T02:05:36.689Z,35.67
2022-12-14T02:08:07.072Z,33.77
2022-12-14T02:10:36.943Z,33.87
2022-12-14T02:13:14.180Z,34.83
2022-12-14T02:15:44.703Z,33.03
2022-12-14T02:18:19.465Z,32.97
2022-12-14T02:21:04.662Z,32.23
2022-12-14T02:24:08.934Z,30.30
2022-12-14T02:27:15.729Z,31.20
2022-12-14T02:29:55.112Z,28.80
2022-12-14T02:32:53.309Z,31.23
2022-12-14T02:35:34.626Z,31.70
2022-12-14T02:38:15.398Z,31.87
2022-12-14T02:40:57.887Z,33.40
2022-12-14T02:43:33.319Z,31.53
2022-12-14T02:46:13.521Z,31.03
2022-12-14T02:48:48.706Z,31.00
2022-12-14T02:51:25.940Z,31.57
2022-12-14T02:54:01.160Z,32.57
2022-12-14T02:56:36.890Z,30.90
2022-12-14T02:59:08.847Z,30.83
2022-12-14T03:01:42.050Z,30.90
2022-12-14T03:04:17.483Z,32.07
2022-12-14T03:06:57.761Z,31.33
2022-12-14T03:09:31.715Z,30.60
2022-12-14T03:12:07.466Z,29.63
2022-12-14T03:14:40.837Z,31.50
2022-12-14T03:17:19.441Z,31.57
2022-12-14T03:19:54.048Z,32.70
2022-12-14T03:22:26.772Z,31.87
2022-12-14T03:25:01.052Z,29.50
2022-12-14T03:27:34.615Z,30.53
2022-12-14T03:30:09.049Z,29.33
2022-12-14T03:32:42.784Z,29.57
2022-12-14T03:35:16.415Z,30.13
2022-12-14T03:37:53.274Z,30.60
2022-12-14T03:40:31.061Z,29.13
2022-12-14T03:43:07.004Z,29.50
2022-12-14T03:45:45.260Z,29.37
2022-12-14T03:48:25.462Z,29.20
2022-12-14T03:51:07.941Z,29.33
2022-12-14T03:56:15.599Z,28.97
2022-12-14T03:58:57.181Z,29.50
2022-12-14T04:01:38.447Z,31.23
2022-12-14T04:04:15.051Z,30.30
2022-12-14T04:06:53.949Z,30.17
2022-12-14T04:09:33.844Z,30.03
2022-12-14T04:12:28.164Z,31.27
2022-12-14T04:15:24.003Z,29.70
2022-12-14T04:18:16.461Z,30.03
2022-12-14T04:20:50.874Z,29.35
2022-12-14T04:23:40.431Z,30.03
2022-12-14T04:26:16.196Z,28.97
2022-12-14T04:29:09.554Z,29.50
2022-12-14T04:31:42.408Z,28.80
2022-12-14T04:34:15.587Z,30.07
2022-12-14T04:36:50.978Z,29.80
2022-12-14T04:39:27.968Z,27.90
2022-12-14T04:42:02.705Z,30.57
2022-12-14T04:44:35.803Z,30.23
2022-12-14T04:47:09.465Z,31.00
2022-12-14T04:49:44.749Z,29.73
2022-12-14T04:52:24.639Z,30.00
2022-12-14T04:54:59.346Z,30.10
2022-12-14T04:57:36.789Z,29.27
2022-12-14T05:04:54.899Z,28.47
2022-12-14T05:07:37.941Z,30.70
2022-12-14T05:10:12.747Z,30.60
2022-12-14T05:12:48.356Z,27.63
2022-12-14T05:15:23.115Z,30.27
2022-12-14T05:17:53.545Z,29.73
2022-12-14T05:20:24.011Z,30.37
2022-12-14T05:22:53.405Z,30.97
2022-12-14T05:25:22.877Z,31.97
2022-12-14T05:27:52.302Z,33.57
2022-12-14T05:30:23.394Z,32.53
2022-12-14T05:32:53.840Z,31.80
2022-12-14T05:35:23.370Z,33.60
2022-12-14T05:37:53.370Z,31.93
2022-12-14T05:40:22.736Z,30.77
2022-12-14T05:42:55.782Z,30.73
2022-12-14T05:45:25.627Z,30.70
2022-12-14T05:47:55.573Z,30.13
2022-12-14T05:50:25.074Z,30.10
2022-12-14T05:52:55.151Z,30.63
2022-12-14T05:55:24.628Z,31.27
2022-12-14T05:57:54.063Z,29.60
2022-12-14T06:00:23.658Z,29.27
2022-12-14T06:02:55.607Z,29.87
2022-12-14T06:05:25.091Z,28.52
2022-12-14T06:07:55.892Z,27.90
2022-12-14T06:10:25.293Z,28.40
2022-12-14T06:12:54.753Z,26.53
2022-12-14T06:15:24.968Z,26.00
2022-12-14T06:20:24.972Z,27.60
2022-12-14T06:22:56.313Z,26.80
2022-12-14T06:25:25.696Z,27.13
2022-12-14T06:27:55.160Z,27.00
2022-12-14T06:30:24.450Z,26.87
2022-12-14T06:32:53.750Z,26.27
2022-12-14T06:35:23.231Z,26.07
2022-12-14T06:37:52.799Z,25.50
2022-12-14T06:40:23.053Z,26.90
2022-12-14T06:42:52.400Z,25.40
2022-12-14T06:45:22.531Z,25.80
2022-12-14T06:47:52.705Z,26.10
2022-12-14T06:50:22.267Z,27.13
2022-12-14T06:52:51.776Z,27.43
2022-12-14T06:55:21.628Z,28.07
2022-12-14T06:57:52.019Z,27.43
2022-12-14T07:00:23.576Z,27.50
2022-12-14T07:02:53.766Z,28.15
2022-12-14T07:05:23.725Z,27.63
2022-12-14T07:07:53.586Z,27.43
2022-12-14T07:10:22.969Z,26.77
2022-12-14T07:12:52.623Z,27.77
2022-12-14T07:15:22.002Z,26.23
2022-12-14T07:17:51.625Z,26.83
2022-12-14T07:20:21.043Z,25.40
2022-12-14T07:22:50.764Z,26.37
2022-12-14T07:25:20.510Z,27.17
2022-12-14T07:27:52.472Z,25.70
2022-12-14T07:30:21.993Z,25.93
2022-12-14T07:32:51.346Z,27.13
2022-12-14T07:35:20.882Z,28.90
2022-12-14T07:37:51.502Z,28.67
2022-12-14T07:40:20.973Z,26.40
2022-12-14T07:42:50.578Z,26.50
2022-12-14T07:45:21.274Z,26.50
2022-12-14T07:47:50.583Z,28.27
2022-12-14T07:50:20.631Z,27.83
2022-12-14T07:52:50.160Z,27.00
2022-12-14T07:55:20.009Z,27.57
2022-12-14T07:57:49.902Z,27.00
2022-12-14T08:00:20.358Z,30.43
2022-12-14T08:02:49.796Z,25.80
2022-12-14T08:05:19.629Z,26.17
2022-12-14T08:07:49.639Z,27.07
2022-12-14T08:10:19.667Z,26.47
2022-12-14T08:12:51.616Z,27.43
2022-12-14T08:15:21.076Z,29.48
2022-12-14T08:17:50.451Z,28.13
2022-12-14T08:20:20.399Z,29.07
2022-12-14T08:22:52.635Z,29.93
2022-12-14T08:25:22.020Z,28.73
2022-12-14T08:27:52.637Z,28.20
2022-12-14T08:30:24.179Z,27.87
2022-12-14T08:33:01.701Z,29.80
2022-12-14T08:35:33.240Z,28.97
2022-12-14T08:38:03.457Z,29.93
2022-12-14T08:40:36.150Z,27.33
2022-12-14T08:45:34.965Z,26.33
2022-12-14T08:48:04.699Z,28.47
2022-12-14T08:50:34.164Z,28.20
2022-12-14T08:53:03.674Z,27.23
2022-12-14T08:55:38.206Z,25.17
2022-12-14T08:58:08.382Z,26.97
2022-12-14T09:00:38.499Z,27.00
2022-12-14T09:03:08.299Z,26.20
2022-12-14T09:05:42.196Z,25.85
2022-12-14T09:08:12.023Z,26.00
2022-12-14T09:10:50.524Z,24.50
2022-12-14T09:13:20.132Z,25.23
2022-12-14T09:16:01.071Z,24.77
2022-12-14T09:18:34.047Z,25.77
2022-12-14T09:21:04.146Z,24.20
2022-12-14T09:23:35.353Z,24.73
2022-12-14T09:26:11.369Z,24.27
2022-12-14T09:28:45.196Z,25.17
2022-12-14T09:31:16.554Z,24.37
2022-12-14T09:33:49.523Z,22.30
2022-12-14T09:36:26.482Z,23.73
2022-12-14T09:39:00.004Z,22.43
2022-12-14T09:41:43.434Z,21.27
2022-12-14T09:44:22.883Z,22.37
2022-12-14T09:47:02.556Z,22.25
2022-12-14T09:49:34.829Z,24.43
2022-12-14T09:52:07.031Z,22.10
2022-12-14T09:57:14.266Z,23.57
2022-12-14T09:59:43.860Z,22.13
2022-12-14T10:02:35.281Z,23.67
2022-12-14T10:05:29.837Z,23.37
2022-12-14T10:08:08.205Z,21.63
2022-12-14T10:10:48.007Z,22.87
2022-12-14T10:13:32.819Z,21.53
2022-12-14T10:16:24.114Z,21.50
2022-12-14T10:19:16.612Z,22.27
2022-12-14T10:21:51.314Z,21.73
2022-12-14T10:24:25.941Z,22.73
2022-12-14T10:26:56.721Z,21.17
2022-12-14T10:29:35.589Z,21.80
2022-12-14T10:32:18.308Z,20.83
2022-12-14T10:34:52.142Z,21.60
2022-12-14T10:37:33.747Z,21.77
2022-12-14T10:40:34.185Z,19.87
2022-12-14T10:43:41.997Z,21.50
2022-12-14T10:46:26.975Z,20.83
2022-12-14T10:49:09.948Z,21.37
2022-12-14T10:51:44.290Z,22.23
2022-12-14T10:54:30.021Z,22.75
2022-12-14T10:56:59.578Z,23.20
2022-12-14T10:59:40.583Z,22.43
2022-12-14T11:02:16.512Z,22.33
2022-12-14T11:04:51.621Z,21.47
2022-12-14T11:07:23.793Z,22.77
2022-12-14T11:09:53.678Z,23.37
2022-12-14T11:12:26.102Z,23.27
2022-12-14T11:14:59.555Z,24.73
2022-12-14T11:17:39.147Z,23.37
2022-12-14T11:20:22.952Z,23.40
2022-12-14T11:22:55.686Z,24.65
2022-12-14T11:25:36.119Z,22.87
2022-12-14T11:28:19.214Z,24.03
2022-12-14T11:31:02.890Z,23.10
2022-12-14T11:33:39.298Z,23.30
2022-12-14T11:36:10.161Z,25.13
2022-12-14T11:38:39.714Z,23.60
2022-12-14T11:41:20.898Z,22.53
2022-12-14T11:44:07.483Z,23.37
2022-12-14T11:46:52.488Z,22.10
2022-12-14T11:49:26.379Z,23.60
2022-12-14T11:52:12.668Z,23.97
2022-12-14T11:54:49.802Z,23.63
2022-12-14T11:57:25.947Z,22.87
2022-12-14T11:59:58.485Z,23.37
2022-12-14T12:02:33.125Z,24.23
2022-12-14T12:05:08.435Z,23.17
2022-12-14T12:07:48.363Z,24.57
2022-12-14T13:07:37.172Z,23.50
2022-12-14T13:19:50.411Z,22.40
2022-12-14T13:22:26.487Z,23.23
2022-12-14T13:25:03.004Z,23.10
2022-12-14T13:27:57.466Z,22.17
2022-12-14T13:30:46.353Z,22.50
2022-12-14T13:33:46.137Z,23.00
2022-12-14T13:37:00.616Z,21.03
2022-12-14T13:39:50.740Z,22.60
2022-12-14T13:42:30.734Z,22.37
2022-12-14T13:45:02.793Z,22.03
2022-12-14T13:47:40.320Z,21.48
2022-12-14T13:50:51.231Z,21.80
2022-12-14T13:53:27.804Z,22.53
2022-12-14T13:56:01.901Z,21.53
2022-12-14T13:58:38.265Z,22.37
2022-12-14T14:01:13.165Z,22.93
2022-12-14T14:03:53.604Z,23.90
2022-12-14T14:06:35.689Z,23.67
2022-12-14T14:09:41.162Z,26.25
2022-12-14T14:12:44.426Z,25.63
2022-12-14T14:16:26.311Z,28.00
2022-12-14T14:18:50.793Z,26.93
2022-12-14T14:21:52.800Z,25.30
2022-12-14T14:24:29.910Z,24.63
2022-12-14T14:27:09.153Z,24.47
2022-12-14T14:29:46.877Z,23.00
2022-12-14T14:32:38.332Z,23.63
2022-12-14T14:35:23.842Z,21.90
2022-12-14T14:38:00.076Z,23.20
2022-12-14T14:41:06.736Z,21.93
2022-12-14T14:43:30.235Z,22.00
2022-12-14T14:46:05.600Z,21.50
2022-12-14T14:48:44.017Z,20.67
2022-12-14T14:51:21.087Z,23.07
2022-12-14T14:55:06.953Z,21.83
2022-12-14T14:57:55.281Z,23.10
2022-12-14T15:00:28.978Z,21.73
2022-12-14T15:03:07.403Z,22.67
2022-12-14T15:05:46.411Z,21.73
2022-12-14T15:08:30.770Z,23.33
2022-12-14T15:11:16.507Z,22.23
2022-12-14T15:14:00.169Z,22.43
2022-12-14T15:16:41.988Z,21.03
2022-12-14T15:19:26.135Z,22.60
2022-12-14T15:21:59.984Z,21.30
2022-12-14T15:24:43.259Z,22.20
2022-12-14T15:27:24.021Z,21.33
2022-12-14T15:29:58.676Z,22.37
2022-12-14T15:32:28.551Z,20.65
2022-12-14T15:35:04.419Z,22.63
2022-12-14T15:37:48.363Z,23.00
2022-12-14T15:40:23.776Z,21.73
2022-12-14T15:42:55.212Z,22.13
2022-12-14T15:45:28.035Z,22.23
2022-12-14T15:48:14.245Z,21.63
2022-12-14T15:50:49.557Z,22.47
2022-12-14T15:53:29.937Z,24.20
2022-12-14T15:58:48.451Z,25.57
2022-12-14T16:01:28.709Z,25.40
2022-12-14T16:04:05.375Z,24.13
2022-12-14T16:06:43.083Z,23.20
2022-12-14T16:09:23.417Z,24.20
2022-12-14T16:11:59.822Z,24.60
2022-12-14T16:14:43.528Z,23.23
2022-12-14T16:17:21.249Z,25.23
2022-12-14T16:20:00.678Z,23.00
2022-12-14T16:22:34.755Z,23.50
2022-12-14T16:25:18.479Z,22.53
2022-12-14T16:27:51.218Z,24.23
2022-12-14T16:30:25.194Z,22.90
2022-12-14T16:33:07.785Z,23.53
2022-12-14T16:35:39.432Z,23.47
2022-12-14T16:38:13.042Z,24.93
2022-12-14T16:40:52.727Z,22.83
2022-12-14T16:43:29.530Z,22.27
2022-12-14T16:46:19.785Z,23.93
2022-12-14T16:49:29.777Z,22.83
2022-12-14T16:52:09.620Z,23.63
2022-12-14T16:54:39.519Z,22.17
2022-12-14T16:57:20.269Z,23.93
2022-12-14T16:59:59.087Z,24.53
2022-12-14T17:02:33.004Z,24.07
2022-12-14T17:05:06.739Z,23.73
2022-12-14T17:07:38.371Z,22.97
2022-12-14T17:10:15.682Z,24.63
2022-12-14T17:12:45.292Z,23.60
2022-12-14T17:15:17.109Z,22.63
2022-12-14T17:17:50.386Z,23.30
2022-12-14T17:20:29.150Z,22.45
2022-12-14T17:23:01.294Z,21.63
2022-12-14T17:25:33.048Z,29.37
2022-12-14T17:28:03.049Z,25.33
2022-12-14T17:30:33.268Z,23.87
2022-12-14T17:33:04.207Z,24.13
2022-12-14T17:35:33.663Z,25.70
2022-12-14T17:38:03.713Z,27.57
2022-12-14T17:40:34.260Z,25.10
2022-12-14T17:43:11.330Z,24.43
2022-12-14T17:45:42.237Z,21.90
2022-12-14T17:48:18.120Z,23.47
2022-12-14T17:50:50.685Z,24.07
2022-12-14T17:55:50.397Z,21.03
2022-12-14T17:58:19.969Z,22.60
2022-12-14T18:01:00.393Z,22.73
2022-12-14T18:03:32.069Z,23.70
2022-12-14T18:06:04.470Z,21.70
2022-12-14T18:08:38.332Z,23.43
2022-12-14T18:11:13.585Z,21.90
2022-12-14T18:13:47.690Z,23.43
2022-12-14T18:16:23.471Z,23.50
2022-12-14T18:18:58.308Z,22.47
2022-12-14T18:21:30.251Z,23.33
2022-12-14T18:24:00.771Z,24.07
2022-12-14T18:26:30.224Z,28.43
2022-12-14T18:28:59.774Z,25.80
2022-12-14T18:31:33.759Z,25.03
2022-12-14T18:34:03.216Z,26.43
2022-12-14T18:36:33.510Z,25.37
2022-12-14T18:39:03.211Z,24.57
2022-12-14T18:41:36.860Z,25.17
2022-12-14T18:44:11.963Z,22.70
2022-12-14T18:46:41.465Z,25.48
2022-12-14T18:49:11.392Z,24.30
2022-12-14T18:51:41.372Z,24.03
2022-12-14T18:54:11.986Z,25.10
2022-12-14T18:56:42.484Z,24.83
2022-12-14T18:59:11.985Z,26.60
2022-12-14T19:01:42.045Z,24.73
2022-12-14T19:04:12.687Z,26.33
2022-12-14T19:06:52.429Z,24.93
2022-12-14T19:09:23.419Z,26.00
2022-12-14T19:11:53.459Z,24.77
2022-12-14T19:14:23.546Z,24.17
2022-12-14T19:16:58.325Z,27.13
2022-12-14T19:19:36.849Z,23.93
2022-12-14T19:22:11.057Z,26.40
2022-12-14T19:24:40.670Z,25.63
2022-12-14T19:27:10.245Z,23.53
2022-12-14T19:29:40.412Z,24.47
2022-12-14T19:32:11.744Z,25.43
2022-12-14T19:34:41.375Z,24.60
2022-12-14T19:37:11.193Z,26.17
2022-12-14T19:39:41.191Z,25.60
2022-12-14T19:42:10.771Z,27.63
2022-12-14T19:44:40.156Z,26.27
2022-12-14T19:47:09.979Z,28.10
2022-12-14T19:49:39.966Z,25.97
2022-12-14T19:52:10.206Z,25.37
2022-12-14T19:54:40.091Z,27.43
2022-12-14T19:57:09.424Z,28.13
2022-12-14T19:59:39.357Z,26.30
2022-12-14T20:02:12.938Z,25.87
2022-12-14T20:04:43.490Z,24.30
2022-12-14T20:07:14.399Z,23.97
2022-12-14T20:09:44.591Z,26.07
2022-12-14T20:12:14.621Z,26.07
2022-12-14T20:14:44.384Z,27.27
2022-12-14T20:17:19.443Z,27.13
2022-12-14T20:19:49.156Z,26.75
2022-12-14T20:22:18.738Z,26.30
2022-12-14T20:24:49.424Z,27.33
2022-12-14T20:27:19.754Z,27.30
2022-12-14T20:29:49.225Z,26.27
2022-12-14T20:32:19.218Z,27.70
2022-12-14T20:34:48.783Z,28.70
2022-12-14T20:37:18.440Z,27.07
2022-12-14T20:39:47.886Z,28.43
2022-12-14T20:42:17.336Z,27.03
2022-12-14T20:44:49.566Z,25.77
2022-12-14T20:47:19.376Z,27.83
2022-12-14T20:49:48.835Z,26.77
2022-12-14T20:52:18.300Z,26.13
2022-12-14T20:54:48.831Z,24.93
2022-12-14T20:57:18.204Z,24.37
2022-12-14T20:59:47.558Z,22.97
2022-12-14T21:02:20.039Z,26.80
2022-12-14T21:04:55.483Z,25.43
2022-12-14T21:07:26.648Z,31.20
2022-12-14T21:09:56.181Z,24.97
2022-12-14T21:12:26.250Z,28.57
2022-12-14T21:14:57.264Z,25.57
2022-12-14T21:17:28.161Z,26.30
2022-12-14T21:20:18.828Z,32.83
2022-12-14T21:23:21.281Z,34.53
2022-12-14T21:25:50.645Z,36.40
2022-12-14T21:28:27.468Z,38.97
2022-12-14T21:31:04.440Z,29.90
2022-12-14T21:33:35.402Z,26.27
2022-12-14T21:36:08.357Z,26.27
2022-12-14T21:38:38.123Z,25.43
2022-12-14T21:41:26.453Z,26.03
2022-12-14T21:43:55.758Z,26.07
2022-12-14T21:46:29.274Z,25.60
2022-12-14T21:48:59.861Z,25.53
2022-12-14T21:51:29.428Z,26.00
2022-12-14T21:53:58.854Z,25.70
2022-12-14T21:56:48.760Z,25.63
2022-12-14T21:59:24.074Z,24.97
2022-12-14T22:01:54.489Z,25.90
2022-12-14T22:04:24.848Z,24.13
2022-12-14T22:06:54.983Z,23.87
2022-12-14T22:09:24.516Z,22.63
2022-12-14T22:11:54.385Z,23.23
2022-12-14T22:14:25.255Z,22.53
2022-12-14T22:16:58.300Z,22.20
2022-12-14T22:19:30.141Z,22.97
2022-12-14T22:21:59.944Z,22.93
2022-12-14T22:24:29.502Z,23.40
2022-12-14T22:26:59.915Z,22.27
2022-12-14T22:29:29.292Z,23.73
2022-12-14T22:31:58.780Z,22.97
2022-12-14T22:34:28.327Z,21.97
2022-12-14T22:36:57.755Z,22.43
2022-12-14T22:39:27.114Z,22.50
2022-12-14T22:41:56.582Z,21.43
2022-12-14T22:44:26.006Z,21.17
2022-12-14T22:46:55.378Z,21.30
2022-12-14T22:49:24.858Z,22.00
2022-12-14T22:51:54.423Z,22.30
2022-12-14T22:54:25.839Z,24.17
2022-12-14T22:57:01.618Z,22.67
2022-12-14T22:59:36.718Z,21.57
2022-12-14T23:02:06.462Z,21.83
2022-12-14T23:04:37.549Z,21.47
2022-12-14T23:07:07.212Z,20.73
2022-12-14T23:09:54.581Z,20.20
2022-12-14T23:12:42.311Z,20.63
2022-12-14T23:15:29.934Z,21.27
2022-12-14T23:18:21.201Z,21.17
2022-12-14T23:21:09.398Z,22.43
2022-12-14T23:23:57.485Z,24.03
2022-12-14T23:26:45.136Z,24.23
2022-12-14T23:29:32.857Z,22.70
2022-12-14T23:32:20.391Z,22.00
2022-12-14T23:35:08.202Z,21.60
2022-12-14T23:37:55.943Z,22.23
2022-12-14T23:40:43.606Z,21.00
2022-12-14T23:43:33.339Z,20.47
2022-12-14T23:46:23.109Z,21.03
2022-12-14T23:49:15.681Z,19.93
2022-12-14T23:52:03.998Z,18.60
2022-12-14T23:54:51.679Z,19.20
2022-12-14T23:57:39.289Z,19.80
